Time;durP1;ratioP1;P1;durP2;ratioP2;P2;SDS_P1;SDS_P2;PMS_P1;PMS_P2;Temp;Humidity;BMP_temperature;BMP_pressure;BME280_temperature;BME280_humidity;BME280_pressure;Samples;Min_cycle;Max_cycle;Signal;HPM_P1;HPM_P2
2023/11/24 00:00:00;;;;;;;18.42;11.57;;;;;;;;;;5124280;27;20051;-69
2023/11/24 00:02:46;;;;;;;17.70;11.27;;;;;;;;;;5138747;27;20347;-68
2023/11/24 00:05:32;;;;;;;20.08;11.82;;;;;;;;;;5138789;27;20042;-69
2023/11/24 00:08:17;;;;;;;19.17;11.52;;;;;;;;;;5139378;27;20542;-68
2023/11/24 00:11:03;;;;;;;19.63;10.85;;;;;;;;;;5123549;27;20470;-68
2023/11/24 00:13:49;;;;;;;19.98;11.10;;;;;;;;;;5138485;27;20438;-69
2023/11/24 00:16:38;;;;;;;17.00;10.90;;;;;;;;;;5138278;27;20019;-68
2023/11/24 00:19:24;;;;;;;17.17;10.40;;;;;;;;;;5138253;27;20460;-69
2023/11/24 00:22:09;;;;;;;17.65;10.45;;;;;;;;;;5137233;27;20026;-69
2023/11/24 00:24:57;;;;;;;16.52;10.27;;;;;;;;;;5137910;27;20019;-67
2023/11/24 00:27:43;;;;;;;16.40;9.77;;;;;;;;;;5137985;27;20015;-68
2023/11/24 00:30:28;;;;;;;15.75;10.18;;;;;;;;;;5137716;27;20030;-68
2023/11/24 00:33:15;;;;;;;17.20;10.48;;;;;;;;;;5138108;27;20038;-68
2023/11/24 00:36:01;;;;;;;15.35;9.48;;;;;;;;;;5138725;27;20442;-68
2023/11/24 00:38:49;;;;;;;15.02;9.13;;;;;;;;;;5138071;27;20023;-68
2023/11/24 00:41:35;;;;;;;16.00;9.48;;;;;;;;;;5138083;27;20319;-68
2023/11/24 00:44:20;;;;;;;15.43;10.00;;;;;;;;;;5138526;27;20019;-68
2023/11/24 00:47:06;;;;;;;17.13;10.20;;;;;;;;;;5122958;27;20011;-68
2023/11/24 00:49:52;;;;;;;16.17;9.38;;;;;;;;;;5122478;27;20073;-68
2023/11/24 00:52:37;;;;;;;15.70;9.63;;;;;;;;;;5136966;27;20039;-68
2023/11/24 00:55:23;;;;;;;14.43;8.52;;;;;;;;;;5123233;27;20023;-69
2023/11/24 00:58:09;;;;;;;16.35;8.55;;;;;;;;;;5123749;27;20370;-67
2023/11/24 01:00:55;;;;;;;13.20;8.73;;;;;;;;;;5136325;27;20118;-68
2023/11/24 01:03:40;;;;;;;13.82;8.80;;;;;;;;;;5136858;27;20439;-68
2023/11/24 01:06:26;;;;;;;12.38;8.07;;;;;;;;;;5137654;27;20446;-68
2023/11/24 01:09:12;;;;;;;13.35;7.88;;;;;;;;;;5136262;27;20448;-68
2023/11/24 01:11:58;;;;;;;11.23;7.55;;;;;;;;;;5137542;27;20027;-68
2023/11/24 01:14:43;;;;;;;11.60;7.57;;;;;;;;;;5122355;27;20027;-68
2023/11/24 01:17:29;;;;;;;12.00;7.85;;;;;;;;;;5136429;27;20050;-67
2023/11/24 01:20:16;;;;;;;11.43;7.18;;;;;;;;;;5137369;27;20486;-68
2023/11/24 01:23:01;;;;;;;11.27;7.07;;;;;;;;;;5135728;27;20015;-68
2023/11/24 01:25:47;;;;;;;10.93;7.25;;;;;;;;;;5137484;27;20057;-68
2023/11/24 01:28:33;;;;;;;12.20;7.45;;;;;;;;;;5122559;27;20071;-68
2023/11/24 01:31:18;;;;;;;10.48;6.95;;;;;;;;;;5135428;27;20033;-67
2023/11/24 01:34:04;;;;;;;10.10;7.05;;;;;;;;;;5137598;27;20019;-68
2023/11/24 01:36:49;;;;;;;10.52;7.22;;;;;;;;;;5136179;27;20024;-68
2023/11/24 01:39:36;;;;;;;11.25;7.07;;;;;;;;;;5122128;27;20113;-69
2023/11/24 01:42:22;;;;;;;10.75;7.20;;;;;;;;;;5122483;27;20015;-69
2023/11/24 01:45:11;;;;;;;11.07;6.97;;;;;;;;;;5136995;27;20061;-68
2023/11/24 01:47:56;;;;;;;13.57;7.53;;;;;;;;;;5136676;27;20023;-68
2023/11/24 01:50:43;;;;;;;11.77;7.03;;;;;;;;;;5136601;27;20047;-68
2023/11/24 01:53:29;;;;;;;11.95;7.28;;;;;;;;;;5137368;27;20031;-68
2023/11/24 01:56:14;;;;;;;10.48;6.53;;;;;;;;;;5135919;27;20106;-68
2023/11/24 01:59:00;;;;;;;10.55;6.60;;;;;;;;;;5135956;27;20041;-68
2023/11/24 02:01:46;;;;;;;10.38;6.97;;;;;;;;;;5135435;27;20019;-69
2023/11/24 02:04:31;;;;;;;9.32;6.10;;;;;;;;;;5135858;27;20084;-70
2023/11/24 02:07:17;;;;;;;10.32;6.43;;;;;;;;;;5136003;27;20035;-68
2023/11/24 02:10:03;;;;;;;9.63;6.10;;;;;;;;;;5121814;27;20081;-68
2023/11/24 02:12:51;;;;;;;11.82;6.70;;;;;;;;;;5136321;27;20097;-68
2023/11/24 02:15:37;;;;;;;9.35;6.18;;;;;;;;;;5135803;27;20054;-68
2023/11/24 02:18:23;;;;;;;10.00;6.18;;;;;;;;;;5135972;27;20030;-67
2023/11/24 02:21:08;;;;;;;8.75;5.93;;;;;;;;;;5135296;27;20057;-69
2023/11/24 02:23:54;;;;;;;8.35;5.80;;;;;;;;;;5135383;27;20051;-68
2023/11/24 02:26:40;;;;;;;9.90;6.10;;;;;;;;;;5135884;27;20019;-68
2023/11/24 02:29:25;;;;;;;8.93;6.15;;;;;;;;;;5135684;27;20372;-68
2023/11/24 02:32:11;;;;;;;8.88;5.70;;;;;;;;;;5134899;27;20107;-68
2023/11/24 02:34:56;;;;;;;8.38;5.65;;;;;;;;;;5136066;27;20285;-66
2023/11/24 02:37:42;;;;;;;9.65;6.00;;;;;;;;;;5135415;27;20023;-69
2023/11/24 02:40:27;;;;;;;9.23;5.78;;;;;;;;;;5135257;27;20015;-69
2023/11/24 02:43:14;;;;;;;10.00;6.10;;;;;;;;;;5135363;27;20095;-68
2023/11/24 02:46:00;;;;;;;9.25;5.43;;;;;;;;;;5135318;27;20398;-69
2023/11/24 02:48:46;;;;;;;8.68;5.88;;;;;;;;;;5121383;27;20023;-69
2023/11/24 02:51:32;;;;;;;8.63;6.00;;;;;;;;;;5135452;27;20443;-69
2023/11/24 02:54:18;;;;;;;11.18;6.55;;;;;;;;;;5135991;27;20023;-68
2023/11/24 02:57:03;;;;;;;9.05;5.95;;;;;;;;;;5135070;27;20023;-69
2023/11/24 02:59:49;;;;;;;9.70;5.78;;;;;;;;;;5135467;27;20023;-68
2023/11/24 03:02:35;;;;;;;9.32;6.25;;;;;;;;;;5120818;27;20035;-68
2023/11/24 03:05:21;;;;;;;9.07;5.88;;;;;;;;;;5135697;27;20019;-68
2023/11/24 03:08:06;;;;;;;8.80;6.00;;;;;;;;;;5120403;27;20351;-69
2023/11/24 03:10:52;;;;;;;9.40;6.03;;;;;;;;;;5135831;27;20019;-68
2023/11/24 03:13:38;;;;;;;9.40;6.03;;;;;;;;;;5121435;27;20467;-68
2023/11/24 03:16:23;;;;;;;8.93;5.80;;;;;;;;;;5134505;27;20099;-68
2023/11/24 03:19:09;;;;;;;9.13;5.80;;;;;;;;;;5135569;27;20015;-68
2023/11/24 03:21:54;;;;;;;8.07;5.63;;;;;;;;;;5134344;27;20110;-68
2023/11/24 03:24:40;;;;;;;10.02;5.93;;;;;;;;;;5134088;27;20007;-66
2023/11/24 03:27:27;;;;;;;8.35;5.32;;;;;;;;;;5134862;27;20026;-69
2023/11/24 03:30:12;;;;;;;10.32;6.10;;;;;;;;;;5120437;28;20370;-67
2023/11/24 03:32:59;;;;;;;9.00;5.75;;;;;;;;;;5135161;27;20084;-69
2023/11/24 03:35:44;;;;;;;8.57;5.78;;;;;;;;;;5119978;28;20413;-69
2023/11/24 03:38:30;;;;;;;9.15;5.68;;;;;;;;;;5134959;28;20023;-69
2023/11/24 03:41:16;;;;;;;9.90;5.65;;;;;;;;;;5134466;28;20110;-68
2023/11/24 03:44:01;;;;;;;10.23;6.43;;;;;;;;;;5134547;28;20478;-68
2023/11/24 03:46:47;;;;;;;10.60;5.90;;;;;;;;;;5133532;28;20168;-68
2023/11/24 03:49:32;;;;;;;9.05;6.18;;;;;;;;;;5134246;28;20024;-69
2023/11/24 03:52:18;;;;;;;9.68;5.80;;;;;;;;;;5120242;28;20125;-69
2023/11/24 03:55:07;;;;;;;12.55;6.60;;;;;;;;;;5134864;28;20446;-68
2023/11/24 03:57:53;;;;;;;11.13;6.20;;;;;;;;;;5135222;28;20057;-69
2023/11/24 04:00:38;;;;;;;10.02;6.10;;;;;;;;;;5134219;28;20030;-69
2023/11/24 04:03:24;;;;;;;10.73;6.18;;;;;;;;;;5134554;28;20019;-68
2023/11/24 04:06:09;;;;;;;10.60;6.53;;;;;;;;;;5134448;28;20431;-68
2023/11/24 04:08:55;;;;;;;10.95;6.60;;;;;;;;;;5135510;28;20071;-69
2023/11/24 04:11:40;;;;;;;8.95;5.95;;;;;;;;;;5134548;28;20015;-68
2023/11/24 04:14:26;;;;;;;11.55;6.82;;;;;;;;;;5134653;28;20011;-68
2023/11/24 04:17:12;;;;;;;17.33;6.20;;;;;;;;;;5133878;28;20117;-69
2023/11/24 04:19:57;;;;;;;11.00;6.00;;;;;;;;;;5120118;28;20080;-69
2023/11/24 04:22:43;;;;;;;10.85;6.80;;;;;;;;;;5134446;28;20037;-68
2023/11/24 04:25:29;;;;;;;9.05;5.97;;;;;;;;;;5135036;28;20343;-68
2023/11/24 04:28:14;;;;;;;9.93;6.20;;;;;;;;;;5136804;27;20026;-75
2023/11/24 04:31:00;;;;;;;10.45;6.78;;;;;;;;;;5137903;27;20019;-73
2023/11/24 04:33:45;;;;;;;10.32;6.53;;;;;;;;;;5138226;27;20084;-74
2023/11/24 04:36:31;;;;;;;9.73;6.70;;;;;;;;;;5137816;27;20027;-75
2023/11/24 04:39:17;;;;;;;11.63;7.35;;;;;;;;;;5138038;27;20081;-74
2023/11/24 04:42:03;;;;;;;13.00;6.63;;;;;;;;;;5123821;27;20428;-73
2023/11/24 04:44:48;;;;;;;12.75;6.45;;;;;;;;;;5138244;27;20094;-73
2023/11/24 04:47:34;;;;;;;10.65;6.70;;;;;;;;;;5137354;27;20378;-74
2023/11/24 04:50:19;;;;;;;12.32;7.30;;;;;;;;;;5123340;27;20080;-73
2023/11/24 04:53:05;;;;;;;11.32;7.13;;;;;;;;;;5138372;27;20473;-74
2023/11/24 04:55:51;;;;;;;9.68;6.22;;;;;;;;;;5138350;27;20026;-68
2023/11/24 04:58:36;;;;;;;11.82;7.07;;;;;;;;;;5137426;27;20019;-69
2023/11/24 05:01:22;;;;;;;10.55;6.78;;;;;;;;;;5137458;27;20027;-71
2023/11/24 05:04:08;;;;;;;9.52;5.85;;;;;;;;;;5138078;27;20015;-73
2023/11/24 05:06:54;;;;;;;8.93;5.43;;;;;;;;;;5137758;27;20102;-71
2023/11/24 05:09:40;;;;;;;8.82;5.70;;;;;;;;;;5137211;27;20047;-71
2023/11/24 05:12:26;;;;;;;8.82;5.40;;;;;;;;;;5137624;27;20015;-71
2023/11/24 05:15:12;;;;;;;8.98;5.32;;;;;;;;;;5137364;27;20011;-71
2023/11/24 05:17:58;;;;;;;11.10;6.55;;;;;;;;;;5135719;27;20087;-71
2023/11/24 05:20:43;;;;;;;11.75;7.20;;;;;;;;;;5122519;27;20026;-71
2023/11/24 05:23:29;;;;;;;15.05;8.77;;;;;;;;;;5122365;27;20011;-73
2023/11/24 05:26:14;;;;;;;16.25;9.13;;;;;;;;;;5136610;27;20088;-72
2023/11/24 05:29:00;;;;;;;15.30;9.30;;;;;;;;;;5137367;27;20023;-73
2023/11/24 05:31:46;;;;;;;19.08;9.10;;;;;;;;;;5137949;27;20080;-70
2023/11/24 05:34:31;;;;;;;17.00;9.70;;;;;;;;;;5136076;27;20050;-68
2023/11/24 05:37:17;;;;;;;19.38;9.25;;;;;;;;;;5137864;27;20053;-68
2023/11/24 05:40:07;;;;;;;15.55;9.48;;;;;;;;;;5136542;27;20041;-70
2023/11/24 05:42:53;;;;;;;18.65;11.23;;;;;;;;;;5138140;27;20015;-69
2023/11/24 05:45:38;;;;;;;25.17;13.82;;;;;;;;;;5137238;27;20101;-71
2023/11/24 05:48:24;;;;;;;31.20;14.18;;;;;;;;;;5137173;27;20117;-69
2023/11/24 05:51:09;;;;;;;25.85;14.50;;;;;;;;;;5135336;27;20087;-69
2023/11/24 05:53:55;;;;;;;42.58;14.00;;;;;;;;;;5122827;27;20352;-75
2023/11/24 05:56:40;;;;;;;24.27;10.32;;;;;;;;;;5137313;27;20102;-74
2023/11/24 05:59:26;;;;;;;10.48;6.72;;;;;;;;;;5137306;27;20443;-75
2023/11/24 06:02:12;;;;;;;10.70;6.35;;;;;;;;;;5136817;27;20081;-75
2023/11/24 06:04:57;;;;;;;10.80;6.18;;;;;;;;;;5121928;27;20019;-74
2023/11/24 06:07:44;;;;;;;13.80;5.82;;;;;;;;;;5136750;27;20047;-75
2023/11/24 06:10:30;;;;;;;9.75;6.00;;;;;;;;;;5136832;27;20042;-74
2023/11/24 06:13:16;;;;;;;8.68;5.70;;;;;;;;;;5136251;27;20015;-74
2023/11/24 06:16:01;;;;;;;10.80;6.05;;;;;;;;;;5120127;27;20033;-74
2023/11/24 06:18:47;;;;;;;15.98;7.28;;;;;;;;;;5121876;27;20015;-74
2023/11/24 06:21:33;;;;;;;27.48;7.68;;;;;;;;;;5135975;27;20038;-74
2023/11/24 06:24:19;;;;;;;16.92;7.70;;;;;;;;;;5135658;27;20046;-75
2023/11/24 06:27:05;;;;;;;16.50;7.60;;;;;;;;;;5136514;27;20079;-75
2023/11/24 06:29:50;;;;;;;19.83;7.30;;;;;;;;;;5135615;27;20019;-69
2023/11/24 06:32:36;;;;;;;16.60;8.80;;;;;;;;;;5135823;27;20094;-69
2023/11/24 06:35:22;;;;;;;25.65;13.88;;;;;;;;;;5134829;27;20157;-69
2023/11/24 06:38:07;;;;;;;28.90;15.73;;;;;;;;;;5136593;27;20027;-69
2023/11/24 06:40:53;;;;;;;30.02;16.00;;;;;;;;;;5136254;27;20128;-69
2023/11/24 06:43:38;;;;;;;25.77;14.90;;;;;;;;;;5135791;27;20088;-74
2023/11/24 06:46:24;;;;;;;25.67;13.82;;;;;;;;;;5136589;27;20431;-73
2023/11/24 06:49:10;;;;;;;22.58;14.43;;;;;;;;;;5136395;27;20023;-73
2023/11/24 06:51:55;;;;;;;25.65;13.52;;;;;;;;;;5120755;27;20150;-73
2023/11/24 06:54:41;;;;;;;19.60;10.80;;;;;;;;;;5135600;27;20080;-73
2023/11/24 06:57:26;;;;;;;17.40;9.30;;;;;;;;;;5135270;27;20171;-73
2023/11/24 07:00:17;;;;;;;13.82;8.10;;;;;;;;;;5134881;27;20085;-72
2023/11/24 07:03:03;;;;;;;13.55;7.50;;;;;;;;;;5134847;27;20355;-74
2023/11/24 07:05:48;;;;;;;16.92;7.55;;;;;;;;;;5136226;27;20019;-75
2023/11/24 07:08:34;;;;;;;22.92;8.82;;;;;;;;;;5120184;27;20375;-74
2023/11/24 07:11:20;;;;;;;58.28;12.88;;;;;;;;;;5135853;27;20401;-74
2023/11/24 07:14:05;;;;;;;37.67;15.77;;;;;;;;;;5135160;27;20019;-74
2023/11/24 07:16:52;;;;;;;65.43;17.58;;;;;;;;;;5135397;27;20029;-75
2023/11/24 07:19:38;;;;;;;50.42;15.30;;;;;;;;;;5135983;27;20055;-74
2023/11/24 07:22:24;;;;;;;34.33;13.77;;;;;;;;;;5135336;27;20027;-74
2023/11/24 07:25:11;;;;;;;17.63;10.57;;;;;;;;;;5134955;27;20043;-74
2023/11/24 07:27:56;;;;;;;22.23;10.40;;;;;;;;;;5135844;27;20023;-75
2023/11/24 07:30:42;;;;;;;32.90;11.15;;;;;;;;;;5120201;27;20011;-73
2023/11/24 07:33:28;;;;;;;47.72;11.25;;;;;;;;;;5135871;27;20050;-70
2023/11/24 07:36:13;;;;;;;23.20;10.02;;;;;;;;;;5136174;27;20030;-73
2023/11/24 07:38:59;;;;;;;20.08;11.68;;;;;;;;;;5136782;28;20019;-73
2023/11/24 07:41:45;;;;;;;23.98;10.55;;;;;;;;;;5135854;28;20020;-73
2023/11/24 07:44:31;;;;;;;16.25;8.50;;;;;;;;;;5135475;28;20022;-73
2023/11/24 07:47:18;;;;;;;15.43;7.30;;;;;;;;;;5136053;28;20384;-72
2023/11/24 07:50:05;;;;;;;10.45;6.30;;;;;;;;;;5134291;28;20023;-73
2023/11/24 07:52:51;;;;;;;11.00;6.20;;;;;;;;;;5134942;28;20023;-72
2023/11/24 07:55:37;;;;;;;11.63;6.43;;;;;;;;;;5135506;28;20499;-73
2023/11/24 07:58:23;;;;;;;10.07;6.47;;;;;;;;;;5133267;28;20100;-74
2023/11/24 08:01:08;;;;;;;13.98;6.93;;;;;;;;;;5119715;27;20051;-73
2023/11/24 08:03:55;;;;;;;12.25;6.75;;;;;;;;;;5123832;27;20015;-74
2023/11/24 08:06:40;;;;;;;13.05;7.05;;;;;;;;;;5137858;27;20023;-72
2023/11/24 08:09:26;;;;;;;14.02;6.78;;;;;;;;;;5124694;27;20308;-72
2023/11/24 08:12:14;;;;;;;15.20;8.02;;;;;;;;;;5139047;27;20475;-72
2023/11/24 08:15:00;;;;;;;19.65;7.93;;;;;;;;;;5138254;27;20034;-72
2023/11/24 08:17:46;;;;;;;13.95;8.27;;;;;;;;;;5138518;27;20103;-71
2023/11/24 08:20:31;;;;;;;14.48;8.45;;;;;;;;;;5108164;27;20019;-72
2023/11/24 08:23:17;;;;;;;13.98;7.35;;;;;;;;;;5137799;27;20011;-72
2023/11/24 08:26:03;;;;;;;13.02;8.02;;;;;;;;;;5138544;27;20023;-71
2023/11/24 08:28:49;;;;;;;16.15;8.27;;;;;;;;;;5138894;27;20050;-71
2023/11/24 08:31:34;;;;;;;16.80;8.30;;;;;;;;;;5139255;27;20027;-70
2023/11/24 08:34:20;;;;;;;15.00;7.95;;;;;;;;;;5137873;27;20030;-72
2023/11/24 08:37:06;;;;;;;17.98;8.10;;;;;;;;;;5124764;27;20031;-71
2023/11/24 08:39:51;;;;;;;22.45;9.43;;;;;;;;;;5138907;27;20058;-70
2023/11/24 08:42:38;;;;;;;14.80;7.25;;;;;;;;;;5137901;27;20012;-69
2023/11/24 08:45:24;;;;;;;15.95;7.85;;;;;;;;;;5138565;27;20019;-69
2023/11/24 08:48:10;;;;;;;12.60;7.57;;;;;;;;;;5139127;27;20033;-70
2023/11/24 08:50:56;;;;;;;19.02;8.27;;;;;;;;;;5122998;27;20055;-69
2023/11/24 08:53:43;;;;;;;15.20;7.15;;;;;;;;;;5138414;27;20358;-70
2023/11/24 08:56:29;;;;;;;13.15;7.43;;;;;;;;;;5138049;27;20110;-71
2023/11/24 08:59:15;;;;;;;18.13;7.80;;;;;;;;;;5138005;27;20030;-69
2023/11/24 09:02:00;;;;;;;17.33;8.30;;;;;;;;;;5123615;27;20023;-70
2023/11/24 09:04:46;;;;;;;25.27;8.77;;;;;;;;;;5123063;27;20011;-70
2023/11/24 09:07:32;;;;;;;15.93;7.25;;;;;;;;;;5138358;27;20023;-68
2023/11/24 09:10:19;;;;;;;14.57;7.15;;;;;;;;;;5138030;27;20042;-66
2023/11/24 09:13:05;;;;;;;15.10;7.32;;;;;;;;;;5121493;27;20400;-66
2023/11/24 09:15:50;;;;;;;12.32;7.32;;;;;;;;;;5136873;27;20023;-67
2023/11/24 09:18:36;;;;;;;17.58;7.90;;;;;;;;;;5136953;27;20347;-67
2023/11/24 09:21:21;;;;;;;25.10;7.53;;;;;;;;;;5136613;27;20113;-67
2023/11/24 09:24:07;;;;;;;18.38;7.43;;;;;;;;;;5136198;27;20019;-67
2023/11/24 09:26:53;;;;;;;21.77;8.63;;;;;;;;;;5136675;27;20088;-66
2023/11/24 09:29:38;;;;;;;13.98;7.20;;;;;;;;;;5136988;27;20030;-66
2023/11/24 09:32:24;;;;;;;23.13;7.07;;;;;;;;;;5136470;27;20336;-66
2023/11/24 09:35:10;;;;;;;25.60;8.27;;;;;;;;;;5123017;27;20019;-66
2023/11/24 09:37:56;;;;;;;13.63;7.78;;;;;;;;;;5122795;27;20439;-65
2023/11/24 09:40:44;;;;;;;18.70;8.13;;;;;;;;;;5136384;27;20023;-66
2023/11/24 09:43:30;;;;;;;18.88;7.82;;;;;;;;;;5137121;27;20025;-67
2023/11/24 09:46:15;;;;;;;14.23;7.82;;;;;;;;;;5136973;27;20076;-67
2023/11/24 09:49:01;;;;;;;22.55;8.40;;;;;;;;;;5137746;27;20102;-67
2023/11/24 09:51:47;;;;;;;15.80;8.23;;;;;;;;;;5135968;27;20047;-67
2023/11/24 09:54:32;;;;;;;13.40;8.30;;;;;;;;;;5120951;27;20126;-67
2023/11/24 09:57:18;;;;;;;18.23;8.50;;;;;;;;;;5121455;27;20384;-67
2023/11/24 10:00:04;;;;;;;21.27;8.30;;;;;;;;;;5136132;27;20027;-66
2023/11/24 10:02:52;;;;;;;24.85;8.98;;;;;;;;;;5121326;27;20023;-67
2023/11/24 10:05:37;;;;;;;24.98;8.20;;;;;;;;;;5135322;27;20019;-66
2023/11/24 10:08:24;;;;;;;20.08;8.38;;;;;;;;;;5120879;27;20027;-67
2023/11/24 10:11:12;;;;;;;13.52;8.60;;;;;;;;;;5121167;27;20019;-68
2023/11/24 10:13:57;;;;;;;34.13;9.65;;;;;;;;;;5136024;27;20023;-66
2023/11/24 10:16:43;;;;;;;19.88;9.15;;;;;;;;;;5136775;27;20323;-66
2023/11/24 10:19:29;;;;;;;26.15;8.57;;;;;;;;;;5135925;27;20015;-68
2023/11/24 10:22:14;;;;;;;15.32;8.48;;;;;;;;;;5135044;27;20040;-66
2023/11/24 10:25:00;;;;;;;18.38;8.23;;;;;;;;;;5135685;27;20076;-67
2023/11/24 10:27:46;;;;;;;15.23;8.82;;;;;;;;;;5135838;27;20447;-66
2023/11/24 10:30:33;;;;;;;17.08;9.18;;;;;;;;;;5120927;27;20083;-66
2023/11/24 10:33:20;;;;;;;19.45;8.52;;;;;;;;;;5135539;27;20023;-68
2023/11/24 10:36:06;;;;;;;19.63;9.48;;;;;;;;;;5121357;27;20023;-67
2023/11/24 10:39:00;;;;;;;14.85;8.35;;;;;;;;;;5135302;27;20015;-66
2023/11/24 10:41:47;;;;;;;15.25;8.50;;;;;;;;;;5134849;27;20029;-66
2023/11/24 10:44:33;;;;;;;19.15;8.80;;;;;;;;;;5135188;27;20035;-66
2023/11/24 10:47:26;;;;;;;17.40;8.35;;;;;;;;;;5134858;27;20033;-67
2023/11/24 10:50:16;;;;;;;21.05;9.40;;;;;;;;;;5119845;27;20053;-66
2023/11/24 10:53:06;;;;;;;21.58;11.02;;;;;;;;;;5134591;27;20038;-68
2023/11/24 10:55:54;;;;;;;25.73;11.68;;;;;;;;;;5134344;27;20031;-70
2023/11/24 10:58:40;;;;;;;22.00;10.35;;;;;;;;;;5135965;27;20023;-68
2023/11/24 11:01:27;;;;;;;16.05;10.07;;;;;;;;;;5120883;27;20439;-70
2023/11/24 11:04:14;;;;;;;37.78;11.20;;;;;;;;;;5134846;27;20183;-69
2023/11/24 11:07:06;;;;;;;23.08;9.73;;;;;;;;;;5135415;27;20439;-69
2023/11/24 11:09:58;;;;;;;18.60;9.98;;;;;;;;;;5135463;27;20348;-69
2023/11/24 11:12:51;;;;;;;27.77;11.45;;;;;;;;;;5133575;27;20023;-69
2023/11/24 11:15:38;;;;;;;30.42;11.25;;;;;;;;;;5134739;27;20103;-70
2023/11/24 11:18:25;;;;;;;25.85;11.50;;;;;;;;;;5120389;27;20034;-70
2023/11/24 11:21:11;;;;;;;23.85;9.75;;;;;;;;;;5135015;27;20053;-69
2023/11/24 11:23:57;;;;;;;17.55;8.82;;;;;;;;;;5133837;27;20397;-69
2023/11/24 11:26:48;;;;;;;22.02;9.45;;;;;;;;;;5134437;27;20424;-69
2023/11/24 11:29:34;;;;;;;16.60;8.40;;;;;;;;;;5134185;27;20439;-70
2023/11/24 11:32:22;;;;;;;27.40;10.52;;;;;;;;;;5134728;27;20521;-69
2023/11/24 11:35:10;;;;;;;37.22;9.90;;;;;;;;;;5135050;27;20019;-75
2023/11/24 11:37:59;;;;;;;34.55;9.40;;;;;;;;;;5132799;27;20424;-76
2023/11/24 11:40:45;;;;;;;24.15;9.00;;;;;;;;;;5135171;28;20066;-76
2023/11/24 11:43:30;;;;;;;18.98;7.22;;;;;;;;;;5136273;28;20023;-74
2023/11/24 11:46:16;;;;;;;27.33;6.50;;;;;;;;;;5120917;28;20460;-74
2023/11/24 11:49:06;;;;;;;20.08;6.72;;;;;;;;;;5120503;28;20015;-75
2023/11/24 11:51:53;;;;;;;37.85;9.38;;;;;;;;;;5121809;28;20055;-75
2023/11/24 11:54:39;;;;;;;23.48;7.47;;;;;;;;;;5135227;28;20122;-75
2023/11/24 11:57:25;;;;;;;12.23;6.65;;;;;;;;;;5134374;28;20023;-74
2023/11/24 12:00:13;;;;;;;14.15;6.75;;;;;;;;;;5133998;28;20030;-74
2023/11/24 12:02:59;;;;;;;13.73;7.30;;;;;;;;;;5135805;28;20034;-73
2023/11/24 12:05:47;;;;;;;17.05;7.07;;;;;;;;;;5139801;28;20016;-73
2023/11/24 12:08:33;;;;;;;14.20;7.20;;;;;;;;;;5127965;28;20455;-73
2023/11/24 12:11:19;;;;;;;21.50;7.55;;;;;;;;;;5141444;28;20038;-71
2023/11/24 12:14:05;;;;;;;11.50;6.10;;;;;;;;;;5123365;28;20447;-72
2023/11/24 12:16:53;;;;;;;14.90;6.60;;;;;;;;;;5137131;28;20034;-72
2023/11/24 12:19:39;;;;;;;12.35;7.20;;;;;;;;;;5136782;28;20027;-72
2023/11/24 12:22:25;;;;;;;14.05;6.10;;;;;;;;;;5134734;28;20106;-72
2023/11/24 12:25:12;;;;;;;18.25;7.22;;;;;;;;;;5135118;28;20019;-73
2023/11/24 12:28:04;;;;;;;13.38;7.30;;;;;;;;;;5130408;28;20023;-72
2023/11/24 12:30:50;;;;;;;15.55;6.88;;;;;;;;;;5131905;28;20023;-72
2023/11/24 12:33:39;;;;;;;13.05;6.35;;;;;;;;;;5133452;28;20019;-71
2023/11/24 12:36:25;;;;;;;17.65;7.00;;;;;;;;;;5113664;28;20015;-70
2023/11/24 12:39:13;;;;;;;14.52;7.63;;;;;;;;;;5114101;28;20058;-69
2023/11/24 12:41:58;;;;;;;16.15;7.40;;;;;;;;;;5113002;28;20035;-70
2023/11/24 12:44:47;;;;;;;25.13;8.52;;;;;;;;;;5113610;28;20028;-69
2023/11/24 12:47:33;;;;;;;19.02;7.20;;;;;;;;;;5125490;27;20023;-69
2023/11/24 12:50:20;;;;;;;13.82;7.13;;;;;;;;;;5135895;27;20054;-69
2023/11/24 12:53:06;;;;;;;13.30;6.88;;;;;;;;;;5135590;27;20102;-69
2023/11/24 12:55:51;;;;;;;11.07;6.20;;;;;;;;;;5136773;27;20083;-68
2023/11/24 12:58:38;;;;;;;17.30;6.38;;;;;;;;;;5122627;27;20064;-69
2023/11/24 13:01:25;;;;;;;12.95;5.85;;;;;;;;;;5137146;27;20037;-68
2023/11/24 13:04:10;;;;;;;11.60;4.93;;;;;;;;;;5135703;27;20019;-70
2023/11/24 13:06:57;;;;;;;18.08;5.28;;;;;;;;;;5122133;27;20031;-69
2023/11/24 13:09:44;;;;;;;10.55;5.22;;;;;;;;;;5136092;27;20019;-69
2023/11/24 13:12:30;;;;;;;15.25;6.78;;;;;;;;;;5135788;27;20341;-68
2023/11/24 13:15:16;;;;;;;15.45;5.72;;;;;;;;;;5136217;27;20450;-69
2023/11/24 13:18:02;;;;;;;15.65;6.70;;;;;;;;;;5136832;27;20165;-68
2023/11/24 13:20:48;;;;;;;8.35;4.68;;;;;;;;;;5136966;27;20019;-68
2023/11/24 13:23:33;;;;;;;20.65;5.88;;;;;;;;;;5129196;27;20020;-69
2023/11/24 13:26:19;;;;;;;9.70;5.00;;;;;;;;;;5116042;28;20091;-67
2023/11/24 13:29:05;;;;;;;15.05;5.60;;;;;;;;;;5101945;28;20029;-69
2023/11/24 13:31:51;;;;;;;8.18;5.00;;;;;;;;;;5101890;28;20047;-69
2023/11/24 13:34:39;;;;;;;12.05;6.57;;;;;;;;;;5116127;28;20023;-69
2023/11/24 13:37:24;;;;;;;22.15;12.18;;;;;;;;;;5116620;28;20034;-69
2023/11/24 13:40:13;;;;;;;14.00;6.57;;;;;;;;;;5115571;28;20027;-68
2023/11/24 13:42:59;;;;;;;11.55;5.38;;;;;;;;;;5115956;28;20031;-69
2023/11/24 13:45:44;;;;;;;12.25;6.15;;;;;;;;;;5101309;28;20065;-69
2023/11/24 13:48:31;;;;;;;12.25;7.18;;;;;;;;;;5115680;28;20024;-70
2023/11/24 13:51:17;;;;;;;16.42;5.47;;;;;;;;;;5101429;28;20079;-73
2023/11/24 13:54:03;;;;;;;15.82;4.63;;;;;;;;;;5101090;28;20042;-73
2023/11/24 13:56:51;;;;;;;19.00;4.88;;;;;;;;;;5101768;28;20027;-73
2023/11/24 13:59:36;;;;;;;8.40;4.22;;;;;;;;;;5100357;28;20070;-72
2023/11/24 14:02:22;;;;;;;17.13;4.55;;;;;;;;;;5100954;28;20078;-73
2023/11/24 14:05:12;;;;;;;14.68;6.78;;;;;;;;;;5101432;28;20023;-75
2023/11/24 14:07:58;;;;;;;20.08;7.43;;;;;;;;;;5115429;28;20019;-74
2023/11/24 14:10:44;;;;;;;11.57;5.22;;;;;;;;;;5115269;28;20063;-75
2023/11/24 14:13:29;;;;;;;15.48;4.88;;;;;;;;;;5114833;28;20023;-73
2023/11/24 14:16:15;;;;;;;7.85;4.53;;;;;;;;;;5100523;28;20019;-73
2023/11/24 14:19:00;;;;;;;22.67;11.50;;;;;;;;;;5115402;28;20027;-74
2023/11/24 14:21:46;;;;;;;30.05;11.88;;;;;;;;;;5115090;28;20028;-73
2023/11/24 14:24:32;;;;;;;52.75;26.27;;;;;;;;;;5116236;27;20030;-74
2023/11/24 14:27:18;;;;;;;11.80;5.10;;;;;;;;;;5120427;27;20030;-73
2023/11/24 14:30:06;;;;;;;12.93;7.43;;;;;;;;;;5119741;27;20022;-74
2023/11/24 14:32:51;;;;;;;15.85;9.90;;;;;;;;;;5134554;27;20034;-74
2023/11/24 14:35:39;;;;;;;9.98;6.10;;;;;;;;;;5134787;27;20340;-74
2023/11/24 14:38:29;;;;;;;33.67;18.13;;;;;;;;;;5134545;27;20417;-73
2023/11/24 14:41:16;;;;;;;28.15;17.25;;;;;;;;;;5119810;27;20370;-75
2023/11/24 14:44:03;;;;;;;42.83;23.75;;;;;;;;;;5134704;27;20507;-73
2023/11/24 14:46:50;;;;;;;20.92;14.23;;;;;;;;;;5120243;27;20031;-75
2023/11/24 14:49:36;;;;;;;14.45;7.32;;;;;;;;;;5135887;27;20352;-73
2023/11/24 14:52:23;;;;;;;10.50;6.07;;;;;;;;;;5135471;27;20519;-72
2023/11/24 14:55:11;;;;;;;17.77;6.72;;;;;;;;;;5134340;27;20027;-72
2023/11/24 14:57:58;;;;;;;17.90;7.95;;;;;;;;;;5120518;27;20023;-73
2023/11/24 15:00:44;;;;;;;19.13;8.63;;;;;;;;;;5120456;27;20055;-71
2023/11/24 15:03:36;;;;;;;14.57;9.02;;;;;;;;;;5134618;27;20028;-73
2023/11/24 15:06:28;;;;;;;13.80;9.07;;;;;;;;;;5119581;27;20039;-73
2023/11/24 15:09:13;;;;;;;14.43;7.70;;;;;;;;;;5135088;27;20019;-72
2023/11/24 15:11:59;;;;;;;37.83;9.10;;;;;;;;;;5134056;27;20023;-71
2023/11/24 15:14:47;;;;;;;17.10;6.53;;;;;;;;;;5120421;27;20070;-73
2023/11/24 15:17:35;;;;;;;23.80;7.13;;;;;;;;;;5134410;27;20524;-74
2023/11/24 15:20:21;;;;;;;14.55;6.07;;;;;;;;;;5133792;27;20111;-72
2023/11/24 15:23:10;;;;;;;15.65;6.10;;;;;;;;;;5130535;27;20054;-72
2023/11/24 15:25:57;;;;;;;19.50;5.60;;;;;;;;;;5114396;28;20019;-73
2023/11/24 15:28:43;;;;;;;30.98;7.85;;;;;;;;;;5114208;28;20051;-72
2023/11/24 15:31:32;;;;;;;21.33;7.60;;;;;;;;;;5114020;28;20024;-72
2023/11/24 15:34:17;;;;;;;10.38;6.10;;;;;;;;;;5099778;28;20015;-72
2023/11/24 15:37:03;;;;;;;9.38;5.80;;;;;;;;;;5113234;28;20107;-72
2023/11/24 15:39:56;;;;;;;18.25;6.05;;;;;;;;;;5113977;28;20482;-72
2023/11/24 15:42:42;;;;;;;9.25;5.53;;;;;;;;;;5114512;28;20019;-71
2023/11/24 15:45:28;;;;;;;7.22;5.30;;;;;;;;;;5114891;28;20016;-73
2023/11/24 15:48:14;;;;;;;7.53;5.18;;;;;;;;;;5114848;28;20073;-72
2023/11/24 15:50:59;;;;;;;29.45;6.85;;;;;;;;;;5099635;28;20055;-73
2023/11/24 15:53:45;;;;;;;14.05;7.07;;;;;;;;;;5113622;28;20065;-73
2023/11/24 15:56:32;;;;;;;12.38;6.72;;;;;;;;;;5113904;28;20475;-72
2023/11/24 15:59:23;;;;;;;13.45;6.68;;;;;;;;;;5113442;28;20039;-71
2023/11/24 16:02:11;;;;;;;15.52;6.38;;;;;;;;;;5113182;28;20030;-73
2023/11/24 16:04:58;;;;;;;15.65;6.90;;;;;;;;;;5114574;28;20566;-72
2023/11/24 16:07:43;;;;;;;11.32;5.95;;;;;;;;;;5114756;28;20435;-73
2023/11/24 16:10:29;;;;;;;11.65;6.80;;;;;;;;;;5099462;28;20027;-72
2023/11/24 16:13:19;;;;;;;12.15;6.38;;;;;;;;;;5098603;28;20122;-67
2023/11/24 16:16:06;;;;;;;10.88;6.82;;;;;;;;;;5099149;28;20028;-68
2023/11/24 16:18:55;;;;;;;8.80;6.10;;;;;;;;;;5114065;28;20051;-68
2023/11/24 16:21:41;;;;;;;9.68;5.53;;;;;;;;;;5113545;28;20360;-70